sensor_id;sensor_type;location;lat;lon;timestamp;temperature;humidity
27544;DHT22;17996;51.056;3.656;2022-12-13T00:00:34;-0.90;99.90
27544;DHT22;17996;51.056;3.656;2022-12-13T00:03:00;-1.20;99.90
27544;DHT22;17996;51.056;3.656;2022-12-13T00:05:26;-1.10;99.90
27544;DHT22;17996;51.056;3.656;2022-12-13T00:07:51;-0.90;99.90
27544;DHT22;17996;51.056;3.656;2022-12-13T00:10:17;-1.20;99.90
27544;DHT22;17996;51.056;3.656;2022-12-13T00:12:43;-1.20;99.90
27544;DHT22;17996;51.056;3.656;2022-12-13T00:15:09;-1.20;99.90
27544;DHT22;17996;51.056;3.656;2022-12-13T00:17:34;-1.20;99.90
27544;DHT22;17996;51.056;3.656;2022-12-13T00:20:01;-1.10;99.90
27544;DHT22;17996;51.056;3.656;2022-12-13T00:22:27;-1.30;99.90
27544;DHT22;17996;51.056;3.656;2022-12-13T00:24:54;-1.30;99.90
27544;DHT22;17996;51.056;3.656;2022-12-13T00:27:20;-1.30;99.90
27544;DHT22;17996;51.056;3.656;2022-12-13T00:29:46;-1.30;99.90
27544;DHT22;17996;51.056;3.656;2022-12-13T00:32:12;-1.30;99.90
27544;DHT22;17996;51.056;3.656;2022-12-13T00:34:37;-1.30;99.90
27544;DHT22;17996;51.056;3.656;2022-12-13T00:37:03;-1.30;99.90
27544;DHT22;17996;51.056;3.656;2022-12-13T00:39:29;-1.30;99.90
27544;DHT22;17996;51.056;3.656;2022-12-13T00:41:55;-1.30;99.90
27544;DHT22;17996;51.056;3.656;2022-12-13T00:44:20;-1.30;99.90
27544;DHT22;17996;51.056;3.656;2022-12-13T00:46:46;-1.30;99.90
27544;DHT22;17996;51.056;3.656;2022-12-13T00:49:12;-1.30;99.90
27544;DHT22;17996;51.056;3.656;2022-12-13T00:51:38;-1.40;99.90
27544;DHT22;17996;51.056;3.656;2022-12-13T00:54:04;-1.30;99.90
27544;DHT22;17996;51.056;3.656;2022-12-13T00:56:31;-1.30;99.90
27544;DHT22;17996;51.056;3.656;2022-12-13T00:58:58;-1.40;99.90
27544;DHT22;17996;51.056;3.656;2022-12-13T01:01:26;-1.40;99.90
27544;DHT22;17996;51.056;3.656;2022-12-13T01:03:53;-1.40;99.90
27544;DHT22;17996;51.056;3.656;2022-12-13T01:06:54;-1.40;99.90
27544;DHT22;17996;51.056;3.656;2022-12-13T01:09:20;-1.40;99.90
27544;DHT22;17996;51.056;3.656;2022-12-13T01:11:47;-1.40;99.90
27544;DHT22;17996;51.056;3.656;2022-12-13T01:14:14;-1.40;99.90
27544;DHT22;17996;51.056;3.656;2022-12-13T01:16:40;-1.40;99.90
27544;DHT22;17996;51.056;3.656;2022-12-13T01:19:05;-1.40;99.90
27544;DHT22;17996;51.056;3.656;2022-12-13T01:21:31;-1.40;99.90
27544;DHT22;17996;51.056;3.656;2022-12-13T01:24:04;-1.40;99.90
27544;DHT22;17996;51.056;3.656;2022-12-13T01:26:30;-1.40;99.90
27544;DHT22;17996;51.056;3.656;2022-12-13T01:28:56;-1.40;99.90
27544;DHT22;17996;51.056;3.656;2022-12-13T01:31:22;-1.50;99.90
27544;DHT22;17996;51.056;3.656;2022-12-13T01:33:48;-1.50;99.90
27544;DHT22;17996;51.056;3.656;2022-12-13T01:36:16;-1.50;99.90
27544;DHT22;17996;51.056;3.656;2022-12-13T01:38:43;-1.50;99.90
27544;DHT22;17996;51.056;3.656;2022-12-13T01:41:16;-1.50;99.90
27544;DHT22;17996;51.056;3.656;2022-12-13T01:46:09;-1.40;99.90
27544;DHT22;17996;51.056;3.656;2022-12-13T01:48:43;-1.40;99.90
27544;DHT22;17996;51.056;3.656;2022-12-13T01:51:12;-1.40;99.90
27544;DHT22;17996;51.056;3.656;2022-12-13T01:53:41;-1.30;99.90
27544;DHT22;17996;51.056;3.656;2022-12-13T01:56:17;-1.40;99.90
27544;DHT22;17996;51.056;3.656;2022-12-13T01:58:44;-1.30;99.90
27544;DHT22;17996;51.056;3.656;2022-12-13T02:01:11;-1.30;99.90
27544;DHT22;17996;51.056;3.656;2022-12-13T02:03:36;-1.30;99.90
27544;DHT22;17996;51.056;3.656;2022-12-13T02:06:09;-1.30;99.90
27544;DHT22;17996;51.056;3.656;2022-12-13T02:08:38;-1.10;99.90
27544;DHT22;17996;51.056;3.656;2022-12-13T02:11:05;-1.30;99.90
27544;DHT22;17996;51.056;3.656;2022-12-13T02:13:31;-1.30;99.90
27544;DHT22;17996;51.056;3.656;2022-12-13T02:18:50;-1.30;99.90
27544;DHT22;17996;51.056;3.656;2022-12-13T02:24:57;-1.30;99.90
27544;DHT22;17996;51.056;3.656;2022-12-13T02:35:32;-1.30;99.90
27544;DHT22;17996;51.056;3.656;2022-12-13T02:38:17;-1.30;99.90
27544;DHT22;17996;51.056;3.656;2022-12-13T02:41:04;-1.30;99.90
27544;DHT22;17996;51.056;3.656;2022-12-13T02:43:39;-1.30;99.90
27544;DHT22;17996;51.056;3.656;2022-12-13T02:46:10;-1.30;99.90
27544;DHT22;17996;51.056;3.656;2022-12-13T02:48:38;-1.40;99.90
27544;DHT22;17996;51.056;3.656;2022-12-13T02:51:06;-1.30;99.90
27544;DHT22;17996;51.056;3.656;2022-12-13T02:53:33;-1.30;99.90
27544;DHT22;17996;51.056;3.656;2022-12-13T02:56:01;-1.30;99.90
27544;DHT22;17996;51.056;3.656;2022-12-13T02:58:34;-1.30;99.90
27544;DHT22;17996;51.056;3.656;2022-12-13T03:03:51;-1.40;99.90
27544;DHT22;17996;51.056;3.656;2022-12-13T03:12:17;-1.50;99.90
27544;DHT22;17996;51.056;3.656;2022-12-13T03:18:14;-1.40;99.90
27544;DHT22;17996;51.056;3.656;2022-12-13T03:21:01;-1.50;99.90
27544;DHT22;17996;51.056;3.656;2022-12-13T03:23:27;-1.50;99.90
27544;DHT22;17996;51.056;3.656;2022-12-13T03:26:02;-1.50;99.90
27544;DHT22;17996;51.056;3.656;2022-12-13T03:28:29;-1.50;99.90
27544;DHT22;17996;51.056;3.656;2022-12-13T03:30:55;-1.60;99.90
27544;DHT22;17996;51.056;3.656;2022-12-13T03:33:20;-1.60;99.90
27544;DHT22;17996;51.056;3.656;2022-12-13T03:35:48;-1.60;99.90
27544;DHT22;17996;51.056;3.656;2022-12-13T03:38:15;-1.60;99.90
27544;DHT22;17996;51.056;3.656;2022-12-13T03:40:41;-1.60;99.90
27544;DHT22;17996;51.056;3.656;2022-12-13T03:43:07;-1.60;99.90
27544;DHT22;17996;51.056;3.656;2022-12-13T03:45:32;-1.60;99.90
27544;DHT22;17996;51.056;3.656;2022-12-13T03:47:58;-1.60;99.90
27544;DHT22;17996;51.056;3.656;2022-12-13T03:50:24;-1.60;99.90
27544;DHT22;17996;51.056;3.656;2022-12-13T03:52:49;-1.60;99.90
27544;DHT22;17996;51.056;3.656;2022-12-13T03:55:17;-1.60;99.90
27544;DHT22;17996;51.056;3.656;2022-12-13T03:57:43;-1.60;99.90
27544;DHT22;17996;51.056;3.656;2022-12-13T04:00:09;-1.70;99.90
27544;DHT22;17996;51.056;3.656;2022-12-13T04:02:35;-1.70;99.90
27544;DHT22;17996;51.056;3.656;2022-12-13T04:05:01;-1.70;99.90
27544;DHT22;17996;51.056;3.656;2022-12-13T04:07:26;-1.70;99.90
27544;DHT22;17996;51.056;3.656;2022-12-13T04:09:52;-1.70;99.90
27544;DHT22;17996;51.056;3.656;2022-12-13T04:12:17;-1.70;99.90
27544;DHT22;17996;51.056;3.656;2022-12-13T04:15:02;-1.70;99.90
27544;DHT22;17996;51.056;3.656;2022-12-13T04:17:28;-1.70;99.90
27544;DHT22;17996;51.056;3.656;2022-12-13T04:19:54;-1.70;99.90
27544;DHT22;17996;51.056;3.656;2022-12-13T04:22:19;-1.70;99.90
27544;DHT22;17996;51.056;3.656;2022-12-13T04:24:45;-1.70;99.90
27544;DHT22;17996;51.056;3.656;2022-12-13T04:27:10;-1.70;99.90
27544;DHT22;17996;51.056;3.656;2022-12-13T04:29:36;-1.70;99.90
27544;DHT22;17996;51.056;3.656;2022-12-13T04:32:03;-1.70;99.90
27544;DHT22;17996;51.056;3.656;2022-12-13T04:34:29;-1.70;99.90
27544;DHT22;17996;51.056;3.656;2022-12-13T04:36:54;-1.70;99.90
27544;DHT22;17996;51.056;3.656;2022-12-13T04:39:20;-1.80;99.90
27544;DHT22;17996;51.056;3.656;2022-12-13T04:41:46;-1.70;99.90
27544;DHT22;17996;51.056;3.656;2022-12-13T04:44:11;-1.70;99.90
27544;DHT22;17996;51.056;3.656;2022-12-13T04:46:37;-1.70;99.90
27544;DHT22;17996;51.056;3.656;2022-12-13T04:49:02;-1.60;99.90
27544;DHT22;17996;51.056;3.656;2022-12-13T04:51:28;-1.70;99.90
27544;DHT22;17996;51.056;3.656;2022-12-13T04:53:54;-1.70;99.90
27544;DHT22;17996;51.056;3.656;2022-12-13T04:56:20;-1.70;99.90
27544;DHT22;17996;51.056;3.656;2022-12-13T04:58:45;-1.60;99.90
27544;DHT22;17996;51.056;3.656;2022-12-13T05:01:11;-1.80;99.90
27544;DHT22;17996;51.056;3.656;2022-12-13T05:03:37;-1.80;99.90
27544;DHT22;17996;51.056;3.656;2022-12-13T05:06:07;-1.80;99.90
27544;DHT22;17996;51.056;3.656;2022-12-13T05:08:35;-1.80;99.90
27544;DHT22;17996;51.056;3.656;2022-12-13T05:11:02;-1.70;99.90
27544;DHT22;17996;51.056;3.656;2022-12-13T05:13:28;-1.80;99.90
27544;DHT22;17996;51.056;3.656;2022-12-13T05:16:04;-1.80;99.90
27544;DHT22;17996;51.056;3.656;2022-12-13T05:18:31;-1.70;99.90
27544;DHT22;17996;51.056;3.656;2022-12-13T05:21:01;-1.80;99.90
27544;DHT22;17996;51.056;3.656;2022-12-13T05:23:27;-1.80;99.90
27544;DHT22;17996;51.056;3.656;2022-12-13T05:25:53;-1.80;99.90
27544;DHT22;17996;51.056;3.656;2022-12-13T05:28:18;-1.80;99.90
27544;DHT22;17996;51.056;3.656;2022-12-13T05:30:44;-1.80;99.90
27544;DHT22;17996;51.056;3.656;2022-12-13T05:33:10;-1.80;99.90
27544;DHT22;17996;51.056;3.656;2022-12-13T05:35:36;-1.80;99.90
27544;DHT22;17996;51.056;3.656;2022-12-13T05:38:03;-1.80;99.90
27544;DHT22;17996;51.056;3.656;2022-12-13T05:40:30;-1.80;99.90
27544;DHT22;17996;51.056;3.656;2022-12-13T05:42:56;-1.90;99.90
27544;DHT22;17996;51.056;3.656;2022-12-13T05:45:22;-1.90;99.90
27544;DHT22;17996;51.056;3.656;2022-12-13T05:47:48;-1.90;99.90
27544;DHT22;17996;51.056;3.656;2022-12-13T05:50:15;-1.90;99.90
27544;DHT22;17996;51.056;3.656;2022-12-13T05:52:42;-1.80;99.90
27544;DHT22;17996;51.056;3.656;2022-12-13T05:55:08;-1.90;99.90
27544;DHT22;17996;51.056;3.656;2022-12-13T05:57:34;-1.90;99.90
27544;DHT22;17996;51.056;3.656;2022-12-13T06:00:00;-1.90;99.90
27544;DHT22;17996;51.056;3.656;2022-12-13T06:02:26;-1.90;99.90
27544;DHT22;17996;51.056;3.656;2022-12-13T06:04:51;-1.90;99.90
27544;DHT22;17996;51.056;3.656;2022-12-13T06:07:17;-1.90;99.90
27544;DHT22;17996;51.056;3.656;2022-12-13T06:09:43;-1.90;99.90
27544;DHT22;17996;51.056;3.656;2022-12-13T06:12:08;-2.00;99.90
27544;DHT22;17996;51.056;3.656;2022-12-13T06:14:34;-2.00;99.90
27544;DHT22;17996;51.056;3.656;2022-12-13T06:17:00;-2.10;99.90
27544;DHT22;17996;51.056;3.656;2022-12-13T06:19:26;-2.00;99.90
27544;DHT22;17996;51.056;3.656;2022-12-13T06:21:53;-2.10;99.90
27544;DHT22;17996;51.056;3.656;2022-12-13T06:24:21;-1.90;99.90
27544;DHT22;17996;51.056;3.656;2022-12-13T06:26:48;-2.10;99.90
27544;DHT22;17996;51.056;3.656;2022-12-13T06:29:15;-2.10;99.90
27544;DHT22;17996;51.056;3.656;2022-12-13T06:31:41;-2.10;99.90
27544;DHT22;17996;51.056;3.656;2022-12-13T06:34:07;-2.10;99.90
27544;DHT22;17996;51.056;3.656;2022-12-13T06:36:32;-2.10;99.90
27544;DHT22;17996;51.056;3.656;2022-12-13T06:39:05;-2.10;99.90
27544;DHT22;17996;51.056;3.656;2022-12-13T06:41:31;-2.10;99.90
27544;DHT22;17996;51.056;3.656;2022-12-13T06:43:57;-2.10;99.90
27544;DHT22;17996;51.056;3.656;2022-12-13T06:46:23;-2.10;99.90
27544;DHT22;17996;51.056;3.656;2022-12-13T06:48:49;-2.00;99.90
27544;DHT22;17996;51.056;3.656;2022-12-13T06:51:15;-2.10;99.90
27544;DHT22;17996;51.056;3.656;2022-12-13T06:53:41;-2.10;99.90
27544;DHT22;17996;51.056;3.656;2022-12-13T06:56:10;-2.10;99.90
27544;DHT22;17996;51.056;3.656;2022-12-13T06:58:36;-2.10;99.90
27544;DHT22;17996;51.056;3.656;2022-12-13T07:01:08;-2.00;99.90
27544;DHT22;17996;51.056;3.656;2022-12-13T07:03:35;-2.10;99.90
27544;DHT22;17996;51.056;3.656;2022-12-13T07:06:07;-2.10;99.90
27544;DHT22;17996;51.056;3.656;2022-12-13T07:08:33;-2.00;99.90
27544;DHT22;17996;51.056;3.656;2022-12-13T07:11:00;-2.00;99.90
27544;DHT22;17996;51.056;3.656;2022-12-13T07:13:26;-2.00;99.90
27544;DHT22;17996;51.056;3.656;2022-12-13T07:15:52;-2.10;99.90
27544;DHT22;17996;51.056;3.656;2022-12-13T07:18:17;-2.10;99.90
27544;DHT22;17996;51.056;3.656;2022-12-13T07:20:43;-2.10;99.90
27544;DHT22;17996;51.056;3.656;2022-12-13T07:23:10;-2.10;99.90
27544;DHT22;17996;51.056;3.656;2022-12-13T07:25:36;-2.10;99.90
27544;DHT22;17996;51.056;3.656;2022-12-13T07:28:10;-2.00;99.90
27544;DHT22;17996;51.056;3.656;2022-12-13T07:30:38;-2.00;99.90
27544;DHT22;17996;51.056;3.656;2022-12-13T07:33:05;-2.00;99.90
27544;DHT22;17996;51.056;3.656;2022-12-13T07:35:31;-2.00;99.90
27544;DHT22;17996;51.056;3.656;2022-12-13T07:37:57;-2.00;99.90
27544;DHT22;17996;51.056;3.656;2022-12-13T07:40:24;-2.00;99.90
27544;DHT22;17996;51.056;3.656;2022-12-13T07:42:53;-2.00;99.90
27544;DHT22;17996;51.056;3.656;2022-12-13T07:45:20;-1.90;99.90
27544;DHT22;17996;51.056;3.656;2022-12-13T07:47:46;-2.00;99.90
27544;DHT22;17996;51.056;3.656;2022-12-13T07:50:12;-2.00;99.90
27544;DHT22;17996;51.056;3.656;2022-12-13T07:52:38;-1.90;99.90
27544;DHT22;17996;51.056;3.656;2022-12-13T07:55:05;-1.90;99.90
27544;DHT22;17996;51.056;3.656;2022-12-13T07:57:31;-1.90;99.90
27544;DHT22;17996;51.056;3.656;2022-12-13T07:59:57;-1.90;99.90
27544;DHT22;17996;51.056;3.656;2022-12-13T08:02:23;-1.70;99.90
27544;DHT22;17996;51.056;3.656;2022-12-13T08:04:49;-1.70;99.90
27544;DHT22;17996;51.056;3.656;2022-12-13T08:07:15;-1.80;99.90
27544;DHT22;17996;51.056;3.656;2022-12-13T08:09:41;-1.80;99.90
27544;DHT22;17996;51.056;3.656;2022-12-13T08:12:07;-1.70;99.90
27544;DHT22;17996;51.056;3.656;2022-12-13T08:14:33;-1.70;99.90
27544;DHT22;17996;51.056;3.656;2022-12-13T08:16:59;-1.70;99.90
27544;DHT22;17996;51.056;3.656;2022-12-13T08:19:25;-1.80;99.90
27544;DHT22;17996;51.056;3.656;2022-12-13T08:21:50;-1.50;99.90
27544;DHT22;17996;51.056;3.656;2022-12-13T08:24:22;-1.60;99.90
27544;DHT22;17996;51.056;3.656;2022-12-13T08:26:48;-1.50;99.90
27544;DHT22;17996;51.056;3.656;2022-12-13T08:29:14;-1.50;99.90
27544;DHT22;17996;51.056;3.656;2022-12-13T08:31:39;-1.50;99.90
27544;DHT22;17996;51.056;3.656;2022-12-13T08:34:05;-1.50;99.90
27544;DHT22;17996;51.056;3.656;2022-12-13T08:36:31;-1.50;99.90
27544;DHT22;17996;51.056;3.656;2022-12-13T08:38:57;-1.40;99.90
27544;DHT22;17996;51.056;3.656;2022-12-13T08:41:23;-1.40;99.90
27544;DHT22;17996;51.056;3.656;2022-12-13T08:43:49;-1.40;99.90
27544;DHT22;17996;51.056;3.656;2022-12-13T08:46:15;-1.40;99.90
27544;DHT22;17996;51.056;3.656;2022-12-13T08:48:41;-1.20;99.90
27544;DHT22;17996;51.056;3.656;2022-12-13T08:51:09;-1.20;99.90
27544;DHT22;17996;51.056;3.656;2022-12-13T08:53:36;-1.10;99.90
27544;DHT22;17996;51.056;3.656;2022-12-13T08:56:08;-1.00;99.90
27544;DHT22;17996;51.056;3.656;2022-12-13T08:58:36;-1.00;99.90
27544;DHT22;17996;51.056;3.656;2022-12-13T09:01:06;-1.00;99.90
27544;DHT22;17996;51.056;3.656;2022-12-13T09:03:35;-0.80;99.90
27544;DHT22;17996;51.056;3.656;2022-12-13T09:06:13;-0.90;99.90
27544;DHT22;17996;51.056;3.656;2022-12-13T09:08:39;-0.90;99.90
27544;DHT22;17996;51.056;3.656;2022-12-13T09:11:06;-0.90;99.90
27544;DHT22;17996;51.056;3.656;2022-12-13T09:13:35;-0.80;99.90
27544;DHT22;17996;51.056;3.656;2022-12-13T09:16:07;-0.70;99.90
27544;DHT22;17996;51.056;3.656;2022-12-13T09:18:34;-0.60;99.90
27544;DHT22;17996;51.056;3.656;2022-12-13T09:21:08;-0.60;99.90
27544;DHT22;17996;51.056;3.656;2022-12-13T09:23:35;-0.60;99.90
27544;DHT22;17996;51.056;3.656;2022-12-13T09:26:01;-0.50;99.90
27544;DHT22;17996;51.056;3.656;2022-12-13T09:28:27;-0.50;99.90
27544;DHT22;17996;51.056;3.656;2022-12-13T09:30:56;-0.50;99.90
27544;DHT22;17996;51.056;3.656;2022-12-13T09:33:23;-0.50;99.90
27544;DHT22;17996;51.056;3.656;2022-12-13T09:35:49;-0.30;99.90
27544;DHT22;17996;51.056;3.656;2022-12-13T09:38:16;-0.50;99.90
27544;DHT22;17996;51.056;3.656;2022-12-13T09:40:44;-0.40;99.90
27544;DHT22;17996;51.056;3.656;2022-12-13T09:43:19;-0.30;99.90
27544;DHT22;17996;51.056;3.656;2022-12-13T09:45:47;-0.30;99.90
27544;DHT22;17996;51.056;3.656;2022-12-13T09:48:19;-0.30;99.90
27544;DHT22;17996;51.056;3.656;2022-12-13T09:50:46;-0.20;99.90
27544;DHT22;17996;51.056;3.656;2022-12-13T09:53:13;-0.20;99.90
27544;DHT22;17996;51.056;3.656;2022-12-13T09:55:50;-0.10;99.90
27544;DHT22;17996;51.056;3.656;2022-12-13T09:58:17;-0.10;99.90
27544;DHT22;17996;51.056;3.656;2022-12-13T10:00:47;-0.10;99.90
27544;DHT22;17996;51.056;3.656;2022-12-13T10:03:14;-0.10;99.90
27544;DHT22;17996;51.056;3.656;2022-12-13T10:05:44;0.10;99.90
27544;DHT22;17996;51.056;3.656;2022-12-13T10:08:15;0.10;99.90
27544;DHT22;17996;51.056;3.656;2022-12-13T10:10:42;-0.10;99.90
27544;DHT22;17996;51.056;3.656;2022-12-13T10:13:21;0.00;99.90
27544;DHT22;17996;51.056;3.656;2022-12-13T10:15:59;0.00;99.90
27544;DHT22;17996;51.056;3.656;2022-12-13T10:18:37;0.00;99.90
27544;DHT22;17996;51.056;3.656;2022-12-13T10:21:09;0.00;99.90
27544;DHT22;17996;51.056;3.656;2022-12-13T10:23:34;0.00;99.90
27544;DHT22;17996;51.056;3.656;2022-12-13T10:26:08;0.20;99.90
27544;DHT22;17996;51.056;3.656;2022-12-13T10:28:34;0.10;99.90
27544;DHT22;17996;51.056;3.656;2022-12-13T10:31:00;0.10;99.90
27544;DHT22;17996;51.056;3.656;2022-12-13T10:33:30;0.20;99.90
27544;DHT22;17996;51.056;3.656;2022-12-13T10:36:07;0.20;99.90
27544;DHT22;17996;51.056;3.656;2022-12-13T10:38:38;0.20;99.90
27544;DHT22;17996;51.056;3.656;2022-12-13T10:41:28;0.30;99.90
27544;DHT22;17996;51.056;3.656;2022-12-13T10:47:02;0.40;99.90
27544;DHT22;17996;51.056;3.656;2022-12-13T10:49:34;0.40;99.90
27544;DHT22;17996;51.056;3.656;2022-12-13T10:52:02;0.50;99.90
27544;DHT22;17996;51.056;3.656;2022-12-13T10:54:35;0.60;99.90
27544;DHT22;17996;51.056;3.656;2022-12-13T10:57:02;0.60;99.90
27544;DHT22;17996;51.056;3.656;2022-12-13T11:01:57;0.70;99.90
27544;DHT22;17996;51.056;3.656;2022-12-13T11:04:25;0.60;99.90
27544;DHT22;17996;51.056;3.656;2022-12-13T11:06:52;0.60;99.90
27544;DHT22;17996;51.056;3.656;2022-12-13T11:09:29;0.60;99.90
27544;DHT22;17996;51.056;3.656;2022-12-13T11:12:00;0.70;99.90
27544;DHT22;17996;51.056;3.656;2022-12-13T11:14:30;0.70;99.90
27544;DHT22;17996;51.056;3.656;2022-12-13T11:16:59;0.80;99.90
27544;DHT22;17996;51.056;3.656;2022-12-13T11:22:35;1.00;99.90
27544;DHT22;17996;51.056;3.656;2022-12-13T11:25:17;1.00;99.90
27544;DHT22;17996;51.056;3.656;2022-12-13T11:28:08;1.00;99.90
27544;DHT22;17996;51.056;3.656;2022-12-13T11:33:26;1.10;99.90
27544;DHT22;17996;51.056;3.656;2022-12-13T11:38:50;1.10;99.90
27544;DHT22;17996;51.056;3.656;2022-12-13T11:41:30;1.10;99.90
27544;DHT22;17996;51.056;3.656;2022-12-13T11:44:02;1.30;99.90
27544;DHT22;17996;51.056;3.656;2022-12-13T11:46:45;1.40;99.90
27544;DHT22;17996;51.056;3.656;2022-12-13T11:49:15;1.50;99.90
27544;DHT22;17996;51.056;3.656;2022-12-13T11:51:51;1.50;99.90
27544;DHT22;17996;51.056;3.656;2022-12-13T11:54:27;1.50;99.90
27544;DHT22;17996;51.056;3.656;2022-12-13T11:56:56;1.60;99.90
27544;DHT22;17996;51.056;3.656;2022-12-13T11:59:34;1.70;99.90
27544;DHT22;17996;51.056;3.656;2022-12-13T12:02:05;1.70;99.90
27544;DHT22;17996;51.056;3.656;2022-12-13T12:07:16;1.80;99.90
27544;DHT22;17996;51.056;3.656;2022-12-13T12:09:58;1.90;99.90
27544;DHT22;17996;51.056;3.656;2022-12-13T12:12:36;1.90;99.90
27544;DHT22;17996;51.056;3.656;2022-12-13T12:15:23;1.90;99.90
27544;DHT22;17996;51.056;3.656;2022-12-13T12:17:49;1.90;99.90
27544;DHT22;17996;51.056;3.656;2022-12-13T12:20:20;2.10;99.90
27544;DHT22;17996;51.056;3.656;2022-12-13T12:26:02;2.00;99.90
27544;DHT22;17996;51.056;3.656;2022-12-13T12:28:54;2.10;99.90
27544;DHT22;17996;51.056;3.656;2022-12-13T12:31:45;2.00;99.90
27544;DHT22;17996;51.056;3.656;2022-12-13T12:57:22;2.20;99.90
27544;DHT22;17996;51.056;3.656;2022-12-13T12:59:56;2.00;99.90
27544;DHT22;17996;51.056;3.656;2022-12-13T13:03:13;2.10;99.90
27544;DHT22;17996;51.056;3.656;2022-12-13T13:05:32;2.20;99.90
27544;DHT22;17996;51.056;3.656;2022-12-13T13:08:13;2.20;99.90
27544;DHT22;17996;51.056;3.656;2022-12-13T13:10:40;2.20;99.90
27544;DHT22;17996;51.056;3.656;2022-12-13T13:13:38;2.40;99.90
27544;DHT22;17996;51.056;3.656;2022-12-13T13:18:52;2.30;99.90
27544;DHT22;17996;51.056;3.656;2022-12-13T13:21:26;2.20;99.90
27544;DHT22;17996;51.056;3.656;2022-12-13T13:26:42;2.30;99.90
27544;DHT22;17996;51.056;3.656;2022-12-13T13:34:44;2.50;99.90
27544;DHT22;17996;51.056;3.656;2022-12-13T13:37:27;2.30;99.90
27544;DHT22;17996;51.056;3.656;2022-12-13T13:40:01;2.40;99.90
27544;DHT22;17996;51.056;3.656;2022-12-13T13:42:31;2.40;99.90
27544;DHT22;17996;51.056;3.656;2022-12-13T13:45:18;2.50;99.90
27544;DHT22;17996;51.056;3.656;2022-12-13T13:50:42;2.40;99.90
27544;DHT22;17996;51.056;3.656;2022-12-13T13:53:31;2.40;99.90
27544;DHT22;17996;51.056;3.656;2022-12-13T14:23:06;2.10;99.90
27544;DHT22;17996;51.056;3.656;2022-12-13T14:31:00;1.90;99.90
27544;DHT22;17996;51.056;3.656;2022-12-13T14:33:26;1.80;99.90
27544;DHT22;17996;51.056;3.656;2022-12-13T14:35:55;1.70;99.90
27544;DHT22;17996;51.056;3.656;2022-12-13T14:38:29;1.70;99.90
27544;DHT22;17996;51.056;3.656;2022-12-13T14:41:01;1.60;99.90
27544;DHT22;17996;51.056;3.656;2022-12-13T14:43:29;1.60;99.90
27544;DHT22;17996;51.056;3.656;2022-12-13T14:46:06;1.60;99.90
27544;DHT22;17996;51.056;3.656;2022-12-13T14:48:41;1.50;99.90
27544;DHT22;17996;51.056;3.656;2022-12-13T14:51:28;1.50;99.90
27544;DHT22;17996;51.056;3.656;2022-12-13T14:53:55;1.50;99.90
27544;DHT22;17996;51.056;3.656;2022-12-13T14:56:21;1.50;99.90
27544;DHT22;17996;51.056;3.656;2022-12-13T14:58:58;1.50;99.90
27544;DHT22;17996;51.056;3.656;2022-12-13T15:01:28;1.60;99.90
27544;DHT22;17996;51.056;3.656;2022-12-13T15:04:15;1.50;99.90
27544;DHT22;17996;51.056;3.656;2022-12-13T15:06:42;1.50;99.90
27544;DHT22;17996;51.056;3.656;2022-12-13T15:09:17;1.40;99.90
27544;DHT22;17996;51.056;3.656;2022-12-13T15:11:44;1.40;99.90
27544;DHT22;17996;51.056;3.656;2022-12-13T15:14:18;1.40;99.90
27544;DHT22;17996;51.056;3.656;2022-12-13T15:16:49;1.40;99.90
27544;DHT22;17996;51.056;3.656;2022-12-13T15:19:21;1.30;99.90
27544;DHT22;17996;51.056;3.656;2022-12-13T15:22:04;1.20;99.90
27544;DHT22;17996;51.056;3.656;2022-12-13T15:24:37;1.20;99.90
27544;DHT22;17996;51.056;3.656;2022-12-13T15:27:06;1.20;99.90
27544;DHT22;17996;51.056;3.656;2022-12-13T15:29:33;1.10;99.90
27544;DHT22;17996;51.056;3.656;2022-12-13T15:32:01;1.00;99.90
27544;DHT22;17996;51.056;3.656;2022-12-13T15:36:57;0.90;99.90
27544;DHT22;17996;51.056;3.656;2022-12-13T15:39:24;0.90;99.90
27544;DHT22;17996;51.056;3.656;2022-12-13T15:41:52;0.90;99.90
27544;DHT22;17996;51.056;3.656;2022-12-13T15:44:29;0.90;99.90
27544;DHT22;17996;51.056;3.656;2022-12-13T15:47:06;0.90;99.90
27544;DHT22;17996;51.056;3.656;2022-12-13T15:49:40;0.90;99.90
27544;DHT22;17996;51.056;3.656;2022-12-13T15:54:40;0.90;99.90
27544;DHT22;17996;51.056;3.656;2022-12-13T15:59:41;0.90;99.90
27544;DHT22;17996;51.056;3.656;2022-12-13T16:02:21;0.80;99.90
27544;DHT22;17996;51.056;3.656;2022-12-13T16:04:49;0.80;99.90
27544;DHT22;17996;51.056;3.656;2022-12-13T16:07:26;0.80;99.90
27544;DHT22;17996;51.056;3.656;2022-12-13T16:09:55;0.80;99.90
27544;DHT22;17996;51.056;3.656;2022-12-13T16:15:20;0.70;99.90
27544;DHT22;17996;51.056;3.656;2022-12-13T16:17:53;0.80;99.90
27544;DHT22;17996;51.056;3.656;2022-12-13T16:20:20;0.80;99.90
27544;DHT22;17996;51.056;3.656;2022-12-13T16:22:47;0.80;99.90
27544;DHT22;17996;51.056;3.656;2022-12-13T16:25:16;0.80;99.90
27544;DHT22;17996;51.056;3.656;2022-12-13T16:27:42;0.90;99.90
27544;DHT22;17996;51.056;3.656;2022-12-13T16:31:00;0.90;99.90
27544;DHT22;17996;51.056;3.656;2022-12-13T16:32:58;0.80;99.90
27544;DHT22;17996;51.056;3.656;2022-12-13T16:35:23;0.90;99.90
27544;DHT22;17996;51.056;3.656;2022-12-13T16:37:49;0.90;99.90
27544;DHT22;17996;51.056;3.656;2022-12-13T16:40:24;0.90;99.90
27544;DHT22;17996;51.056;3.656;2022-12-13T16:42:50;0.90;99.90
27544;DHT22;17996;51.056;3.656;2022-12-13T16:45:16;0.90;99.90
27544;DHT22;17996;51.056;3.656;2022-12-13T16:47:43;0.90;99.90
27544;DHT22;17996;51.056;3.656;2022-12-13T16:50:13;0.90;99.90
27544;DHT22;17996;51.056;3.656;2022-12-13T16:52:39;0.90;99.90
27544;DHT22;17996;51.056;3.656;2022-12-13T16:55:06;0.90;99.90
27544;DHT22;17996;51.056;3.656;2022-12-13T16:57:33;0.90;99.90
27544;DHT22;17996;51.056;3.656;2022-12-13T16:59:58;0.90;99.90
27544;DHT22;17996;51.056;3.656;2022-12-13T17:02:24;0.90;99.90
27544;DHT22;17996;51.056;3.656;2022-12-13T17:04:50;0.80;99.90
27544;DHT22;17996;51.056;3.656;2022-12-13T17:07:15;0.80;99.90
27544;DHT22;17996;51.056;3.656;2022-12-13T17:09:41;0.80;99.90
27544;DHT22;17996;51.056;3.656;2022-12-13T17:12:08;0.80;99.90
27544;DHT22;17996;51.056;3.656;2022-12-13T17:14:33;0.80;99.90
27544;DHT22;17996;51.056;3.656;2022-12-13T17:16:59;0.80;99.90
27544;DHT22;17996;51.056;3.656;2022-12-13T17:19:24;0.80;99.90
27544;DHT22;17996;51.056;3.656;2022-12-13T17:21:50;0.80;99.90
27544;DHT22;17996;51.056;3.656;2022-12-13T17:24:16;0.80;99.90
27544;DHT22;17996;51.056;3.656;2022-12-13T17:26:42;0.80;99.90
27544;DHT22;17996;51.056;3.656;2022-12-13T17:29:08;0.80;99.90
27544;DHT22;17996;51.056;3.656;2022-12-13T17:31:34;0.70;99.90
27544;DHT22;17996;51.056;3.656;2022-12-13T17:34:00;0.70;99.90
27544;DHT22;17996;51.056;3.656;2022-12-13T17:36:27;0.70;99.90
27544;DHT22;17996;51.056;3.656;2022-12-13T17:38:52;0.90;99.90
27544;DHT22;17996;51.056;3.656;2022-12-13T17:41:18;0.70;99.90
27544;DHT22;17996;51.056;3.656;2022-12-13T17:43:44;0.80;99.90
27544;DHT22;17996;51.056;3.656;2022-12-13T17:46:16;0.60;99.90
27544;DHT22;17996;51.056;3.656;2022-12-13T17:48:43;0.60;99.90
27544;DHT22;17996;51.056;3.656;2022-12-13T17:51:11;0.60;99.90
27544;DHT22;17996;51.056;3.656;2022-12-13T17:53:42;0.70;99.90
27544;DHT22;17996;51.056;3.656;2022-12-13T17:56:10;0.60;99.90
27544;DHT22;17996;51.056;3.656;2022-12-13T17:58:40;0.70;99.90